Time;durP1;ratioP1;P1;durP2;ratioP2;P2;SDS_P1;SDS_P2;PMS_P1;PMS_P2;Temp;Humidity;BMP_temperature;BMP_pressure;BME280_temperature;BME280_humidity;BME280_pressure;Samples;Min_cycle;Max_cycle;Signal;HPM_P1;HPM_P2
2022/06/14 00:00:55;;;;;;;12.00;5.00;;;;;;;12.48;64.22;102198.75;3571377;40;20065;-62
2022/06/14 00:03:23;;;;;;;13.98;5.20;;;;;;;12.43;64.24;102201.69;3569232;40;20044;-62
2022/06/14 00:05:49;;;;;;;14.48;5.53;;;;;;;12.41;64.83;102202.69;3569928;40;20418;-62
2022/06/14 00:08:16;;;;;;;11.68;5.03;;;;;;;12.39;64.78;102194.66;3571361;40;20053;-63
2022/06/14 00:10:43;;;;;;;15.18;5.10;;;;;;;12.39;65.59;102193.78;3570811;40;20068;-62
2022/06/14 00:13:11;;;;;;;20.67;5.55;;;;;;;12.34;66.19;102195.81;3576089;40;20097;-62
2022/06/14 00:15:37;;;;;;;18.55;5.68;;;;;;;12.25;67.50;102192.63;3570913;40;20059;-63
2022/06/14 00:18:03;;;;;;;14.77;5.60;;;;;;;12.20;67.66;102186.56;3574166;40;20064;-62
2022/06/14 00:20:29;;;;;;;11.00;5.25;;;;;;;11.50;67.22;102087.41;3566175;40;20377;-63
2022/06/14 00:22:55;;;;;;;16.63;5.20;;;;;;;12.05;66.98;102189.97;3575578;40;20055;-62
2022/06/14 00:25:39;;;;;;;13.77;5.18;;;;;;;12.04;66.68;102196.31;3570859;40;20055;-62
2022/06/14 00:28:08;;;;;;;;;;;;;;;12.02;66.91;102193.72;3571724;40;20061;-62
2022/06/14 00:30:36;;;;;;;13.25;5.07;;;;;;;11.99;66.77;102191.16;3570927;40;19964;-63
2022/06/14 00:33:01;;;;;;;16.60;5.82;;;;;;;11.91;67.40;102189.75;3572404;40;20060;-62
2022/06/14 00:35:27;;;;;;;13.43;5.82;;;;;;;11.89;67.76;102195.19;3572040;40;20056;-62
2022/06/14 00:37:54;;;;;;;14.77;5.53;;;;;;;11.90;68.15;102194.28;3571736;40;20060;-62
2022/06/14 00:40:26;;;;;;;14.07;5.50;;;;;;;11.91;67.60;102187.06;3561490;40;20373;-63
2022/06/14 00:42:53;;;;;;;19.23;6.00;;;;;;;11.89;67.38;102179.03;3575389;40;20064;-62
2022/06/14 00:45:18;;;;;;;15.02;5.50;;;;;;;11.83;66.96;102176.59;3569748;40;20049;-62
2022/06/14 00:48:08;;;;;;;18.08;6.20;;;;;;;11.77;67.89;102177.75;3572102;40;20053;-62
2022/06/14 00:50:56;;;;;;;16.17;5.90;;;;;;;11.41;68.63;102130.91;3566243;40;20156;-63
2022/06/14 00:53:48;;;;;;;14.32;5.90;;;;;;;11.65;68.97;102175.59;3566535;40;20119;-63
2022/06/14 00:56:26;;;;;;;14.38;5.82;;;;;;;11.61;68.52;102179.38;3571702;40;20068;-65
2022/06/14 00:59:10;;;;;;;14.07;5.28;;;;;;;11.51;69.38;102173.53;3572219;40;20307;-63
2022/06/14 01:01:41;;;;;;;13.52;6.65;;;;;;;11.46;69.59;102172.84;3565359;40;20059;-63
2022/06/14 01:04:19;;;;;;;13.43;5.80;;;;;;;11.43;69.05;102172.13;3572554;40;20101;-63
2022/06/14 01:07:05;;;;;;;15.15;6.00;;;;;;;11.33;69.03;102150.09;3567193;40;20548;-63
2022/06/14 01:09:51;;;;;;;16.67;5.95;;;;;;;11.39;69.15;102166.88;3571660;40;20064;-62
2022/06/14 01:12:26;;;;;;;13.13;6.18;;;;;;;11.38;69.67;102170.50;3572014;40;20096;-65
2022/06/14 01:15:21;;;;;;;14.65;6.60;;;;;;;11.33;70.35;102168.94;3572867;40;20061;-63
2022/06/14 01:18:04;;;;;;;14.38;6.40;;;;;;;11.34;71.04;102168.88;3573281;40;20080;-62
2022/06/14 01:20:31;;;;;;;16.50;7.05;;;;;;;11.29;71.01;102176.28;3570654;40;20088;-62
2022/06/14 01:22:58;;;;;;;16.23;6.72;;;;;;;11.29;71.51;102178.06;3572595;40;20130;-62
2022/06/14 01:25:31;;;;;;;16.38;6.50;;;;;;;11.28;71.67;102173.66;3571349;40;20086;-64
2022/06/14 01:28:02;;;;;;;17.60;6.65;;;;;;;11.25;71.92;102169.25;3567577;40;20057;-62
2022/06/14 01:30:38;;;;;;;19.85;6.88;;;;;;;11.18;72.07;102166.91;3570390;40;20060;-63
2022/06/14 01:33:11;;;;;;;14.52;6.88;;;;;;;11.17;72.57;102166.03;3565971;40;20125;-63
2022/06/14 01:35:44;;;;;;;14.95;6.50;;;;;;;11.12;71.61;102159.97;3568709;40;20166;-62
2022/06/14 01:38:16;;;;;;;13.23;6.35;;;;;;;11.14;72.31;102158.97;3569603;40;20053;-62
2022/06/14 01:41:15;;;;;;;15.88;7.57;;;;;;;11.10;72.06;102157.38;3566503;40;20094;-62
2022/06/14 01:44:31;;;;;;;12.90;5.78;;;;;;;11.04;71.59;102160.31;3566201;40;20058;-63
2022/06/14 01:47:22;;;;;;;16.33;7.05;;;;;;;11.00;72.07;102163.19;3567350;40;20119;-62
2022/06/14 01:53:36;;;;;;;13.25;6.68;;;;;;;10.87;71.35;102160.13;3568338;40;20086;-63
2022/06/14 01:56:20;;;;;;;15.95;6.57;;;;;;;10.75;71.57;102145.41;3565897;40;20056;-62
2022/06/14 01:59:32;;;;;;;15.60;6.10;;;;;;;10.82;71.96;102157.66;3567889;40;20320;-62
2022/06/14 02:02:10;;;;;;;16.25;6.40;;;;;;;10.78;71.72;102156.00;3565560;40;20057;-62
2022/06/14 02:05:01;;;;;;;13.23;6.05;;;;;;;10.73;72.23;102149.09;3570635;40;20150;-62
2022/06/14 02:07:35;;;;;;;12.15;6.15;;;;;;;10.71;72.22;102141.06;3568150;40;20057;-63
2022/06/14 02:10:19;;;;;;;12.50;6.03;;;;;;;10.68;73.66;102144.75;3569560;40;20347;-62
2022/06/14 02:13:15;;;;;;;12.60;5.70;;;;;;;10.64;73.68;102139.56;3569568;40;20052;-63
2022/06/14 02:16:08;;;;;;;16.70;6.50;;;;;;;10.62;73.19;102141.44;3569121;40;20091;-63
2022/06/14 02:18:59;;;;;;;11.80;5.63;;;;;;;10.54;73.85;102138.19;3568660;40;20128;-63
2022/06/14 02:21:41;;;;;;;13.23;6.03;;;;;;;10.48;73.92;102130.38;3570303;40;20057;-63
2022/06/14 02:24:21;;;;;;;20.40;6.43;;;;;;;9.71;73.79;102007.13;3565538;40;20131;-63
2022/06/14 02:27:00;;;;;;;18.25;6.35;;;;;;;10.44;73.27;102126.94;3572391;40;20091;-63
2022/06/14 02:29:40;;;;;;;13.73;6.30;;;;;;;10.42;73.99;102134.19;3568799;40;20052;-64
2022/06/14 02:32:24;;;;;;;12.32;6.15;;;;;;;10.35;74.06;102122.81;3567704;40;20057;-63
2022/06/14 02:35:18;;;;;;;13.45;6.03;;;;;;;10.36;73.64;102129.06;3572092;40;20125;-63
2022/06/14 02:38:00;;;;;;;15.48;5.88;;;;;;;10.33;73.93;102127.34;3569915;40;20041;-64
2022/06/14 02:40:51;;;;;;;17.25;6.43;;;;;;;10.32;74.12;102122.94;3571141;40;20061;-63
2022/06/14 02:43:38;;;;;;;18.05;6.20;;;;;;;10.32;73.58;102122.94;3571523;40;20056;-64
2022/06/14 02:46:25;;;;;;;13.05;5.50;;;;;;;10.34;74.05;102121.06;3565347;40;20107;-64
2022/06/14 02:49:35;;;;;;;12.00;5.90;;;;;;;10.35;73.57;102120.13;3572057;40;20121;-63
2022/06/14 02:52:20;;;;;;;14.75;5.78;;;;;;;10.32;73.38;102112.19;3569030;40;20053;-63
2022/06/14 02:55:21;;;;;;;11.35;5.63;;;;;;;10.29;73.89;102114.13;3570325;40;20064;-63
2022/06/14 02:58:13;;;;;;;11.52;5.60;;;;;;;10.24;74.62;102108.88;3571232;40;20060;-63
2022/06/14 03:00:50;;;;;;;14.40;6.22;;;;;;;10.27;74.23;102113.28;3572004;40;20129;-63
2022/06/14 03:03:38;;;;;;;15.88;6.35;;;;;;;9.93;74.41;102058.19;3571265;40;20096;-63
2022/06/14 03:06:26;;;;;;;15.25;6.00;;;;;;;10.26;74.51;102117.81;3572811;40;20049;-63
2022/06/14 03:09:11;;;;;;;15.13;6.82;;;;;;;10.23;73.76;102124.13;3571429;40;20047;-63
2022/06/14 03:12:13;;;;;;;13.82;5.93;;;;;;;10.18;73.86;102119.88;3569136;40;20452;-63
2022/06/14 03:15:00;;;;;;;17.00;6.72;;;;;;;10.15;73.96;102120.88;3574361;40;20421;-63
2022/06/14 03:18:30;;;;;;;15.02;5.68;;;;;;;10.13;74.92;102121.88;3574422;40;20053;-63
2022/06/14 03:21:06;;;;;;;15.20;5.47;;;;;;;10.17;74.65;102127.06;3519828;40;20057;-62
2022/06/14 03:24:02;;;;;;;12.68;5.72;;;;;;;10.21;73.91;102125.13;3565462;40;20114;-62
2022/06/14 03:26:49;;;;;;;13.88;6.72;;;;;;;10.21;73.73;102123.34;3571895;40;20048;-64
2022/06/14 03:29:39;;;;;;;15.93;6.70;;;;;;;10.18;74.02;102130.63;3572353;40;20055;-63
2022/06/14 03:32:32;;;;;;;15.25;6.47;;;;;;;10.20;73.84;102126.06;3570204;40;20047;-65
2022/06/14 03:35:13;;;;;;;18.35;6.63;;;;;;;10.21;74.18;102125.13;3572485;40;20056;-65
2022/06/14 03:37:38;;;;;;;14.40;6.13;;;;;;;10.11;74.39;102107.63;3568528;40;20331;-65
2022/06/14 03:40:15;;;;;;;13.07;6.60;;;;;;;10.25;74.71;102121.41;3565836;40;20049;-65
2022/06/14 03:42:42;;;;;;;14.43;6.00;;;;;;;10.27;74.77;102127.59;3570105;40;20048;-67
2022/06/14 03:45:15;;;;;;;16.38;6.10;;;;;;;9.94;73.65;102058.13;3566272;40;20474;-64
2022/06/14 03:47:41;;;;;;;11.10;5.70;;;;;;;10.22;74.42;102125.06;3568763;40;20064;-67
2022/06/14 03:50:13;;;;;;;16.80;6.72;;;;;;;10.14;74.07;102103.00;3558001;40;20292;-65
2022/06/14 03:53:22;;;;;;;15.70;6.40;;;;;;;10.26;74.18;102117.81;3567955;40;20425;-65
2022/06/14 03:56:35;;;;;;;9.18;5.35;;;;;;;10.25;74.77;102121.41;3568061;40;20141;-64
2022/06/14 03:59:54;;;;;;;12.95;6.35;;;;;;;10.24;75.40;102111.56;3566426;40;20646;-67
2022/06/14 04:02:55;;;;;;;11.15;5.60;;;;;;;10.27;76.19;102126.72;3548637;40;20053;-64
2022/06/14 04:05:59;;;;;;;16.63;6.53;;;;;;;10.23;76.70;102123.25;3561828;40;20057;-64
2022/06/14 04:08:34;;;;;;;13.90;6.78;;;;;;;10.27;76.29;102130.28;3570788;40;20120;-64
2022/06/14 04:11:12;;;;;;;19.58;6.75;;;;;;;10.24;75.90;102133.06;3568242;40;20061;-65
2022/06/14 04:13:46;;;;;;;15.60;6.75;;;;;;;10.21;75.23;102125.13;3565916;40;20360;-66
2022/06/14 04:16:45;;;;;;;18.65;6.88;;;;;;;10.20;75.85;102136.81;3567346;40;20061;-64
2022/06/14 04:19:31;;;;;;;17.50;5.70;;;;;;;10.25;75.83;102137.53;3566452;40;20101;-64
2022/06/14 04:22:25;;;;;;;13.68;6.05;;;;;;;10.32;76.03;102139.06;3567802;40;20431;-67
2022/06/14 04:25:05;;;;;;;14.45;6.63;;;;;;;10.39;74.95;102129.81;3567195;40;20104;-66
2022/06/14 04:27:47;;;;;;;18.08;5.72;;;;;;;10.47;75.43;102142.09;3566743;40;20049;-65
2022/06/14 04:30:30;;;;;;;15.98;6.35;;;;;;;10.52;74.74;102135.56;3565837;40;20057;-65
2022/06/14 04:33:07;;;;;;;13.55;6.22;;;;;;;10.58;74.98;102134.44;3567207;40;20048;-65
2022/06/14 04:35:55;;;;;;;19.58;6.50;;;;;;;10.65;74.14;102135.94;3569522;40;20060;-65
2022/06/14 04:38:45;;;;;;;12.15;6.18;;;;;;;10.75;74.45;102140.03;3568443;40;20057;-65
2022/06/14 04:41:31;;;;;;;18.77;6.55;;;;;;;10.79;74.70;102138.06;3565082;40;20057;-65
2022/06/14 04:44:17;;;;;;;14.73;6.75;;;;;;;10.87;74.35;102146.69;3569324;40;20096;-66
2022/06/14 04:47:17;;;;;;;16.20;6.82;;;;;;;10.92;74.18;102133.91;3563809;40;20375;-66
2022/06/14 04:50:15;;;;;;;13.82;7.18;;;;;;;11.00;74.03;102137.16;3570205;40;20060;-65
2022/06/14 04:52:53;;;;;;;13.50;6.45;;;;;;;11.05;73.93;102136.97;3563976;40;20061;-68
2022/06/14 04:55:37;;;;;;;13.98;6.15;;;;;;;11.14;73.94;102144.66;3563242;40;20097;-65
2022/06/14 04:58:24;;;;;;;17.60;7.30;;;;;;;11.22;74.10;102141.59;3567227;40;20096;-64
2022/06/14 05:00:59;;;;;;;16.23;7.13;;;;;;;11.29;73.74;102140.41;3569268;40;20097;-65
2022/06/14 05:03:42;;;;;;;14.57;7.32;;;;;;;11.36;73.48;102145.47;3571011;40;20310;-67
2022/06/14 05:06:24;;;;;;;14.90;6.83;;;;;;;11.42;73.37;102140.72;3572581;40;20056;-65
2022/06/14 05:09:01;;;;;;;16.63;6.82;;;;;;;11.53;74.03;102139.31;3568922;40;20262;-66
2022/06/14 05:12:06;;;;;;;16.60;7.30;;;;;;;11.63;74.30;102142.47;3567635;40;20077;-65
2022/06/14 05:14:54;;;;;;;20.83;7.13;;;;;;;11.75;73.86;102149.13;3565681;40;20065;-66
2022/06/14 05:17:37;;;;;;;20.50;7.03;;;;;;;11.68;74.77;102107.25;3567934;40;20060;-65
2022/06/14 05:20:35;;;;;;;19.75;7.10;;;;;;;12.00;73.79;102147.09;3567472;40;20106;-65
2022/06/14 05:23:37;;;;;;;26.52;6.88;;;;;;;12.09;73.73;102140.41;3568545;40;20072;-66
2022/06/14 05:26:44;;;;;;;12.75;6.82;;;;;;;12.23;73.46;102148.69;3567532;40;20053;-65
2022/06/14 05:29:30;;;;;;;21.25;7.00;;;;;;;12.32;72.88;102142.84;3564723;40;20343;-66
2022/06/14 05:32:25;;;;;;;12.75;6.25;;;;;;;12.46;72.56;102138.63;3566929;40;20061;-64
2022/06/14 05:35:31;;;;;;;13.57;6.63;;;;;;;12.58;71.87;102143.41;3566089;40;20044;-66
2022/06/14 05:38:09;;;;;;;13.25;6.50;;;;;;;12.70;72.45;102145.50;3568170;40;20064;-65
2022/06/14 05:40:52;;;;;;;14.30;6.35;;;;;;;12.85;71.75;102159.19;3568114;40;20411;-66
2022/06/14 05:43:31;;;;;;;14.07;6.43;;;;;;;12.95;71.00;102150.53;3567534;40;20053;-68
2022/06/14 05:46:14;;;;;;;15.25;5.97;;;;;;;13.07;69.96;102153.59;3568116;40;20292;-65
2022/06/14 05:48:50;;;;;;;15.18;5.80;;;;;;;13.13;67.95;102148.75;3567264;40;20053;-67
2022/06/14 05:51:25;;;;;;;13.15;5.63;;;;;;;13.27;68.03;102155.28;3570724;40;20049;-66
2022/06/14 05:54:24;;;;;;;13.82;5.28;;;;;;;13.41;68.13;102144.63;3567935;40;20060;-66
2022/06/14 05:57:11;;;;;;;11.10;4.70;;;;;;;13.55;66.36;102146.63;3568124;40;20363;-65
2022/06/14 05:59:50;;;;;;;12.65;4.43;;;;;;;13.69;65.61;102158.41;3570767;40;20048;-65
2022/06/14 06:02:39;;;;;;;13.23;5.07;;;;;;;13.86;65.76;102156.63;3566680;40;20057;-64
2022/06/14 06:05:39;;;;;;;14.00;4.88;;;;;;;14.05;65.51;102145.69;3567592;40;20041;-64
2022/06/14 06:08:32;;;;;;;16.75;5.28;;;;;;;14.20;63.18;102155.66;3568583;40;20052;-65
2022/06/14 06:11:13;;;;;;;13.75;4.38;;;;;;;14.35;62.88;102160.19;3566034;40;20061;-66
2022/06/14 06:13:49;;;;;;;11.80;3.80;;;;;;;14.40;62.68;102138.31;3567865;40;20493;-65
2022/06/14 06:16:42;;;;;;;11.68;4.40;;;;;;;14.80;62.09;102166.66;3566625;40;20061;-65
2022/06/14 06:19:18;;;;;;;9.25;4.10;;;;;;;15.00;59.98;102161.91;3569202;40;20049;-64
2022/06/14 06:22:02;;;;;;;8.00;3.63;;;;;;;15.19;60.26;102167.09;3567499;40;20057;-65
2022/06/14 06:24:45;;;;;;;11.27;3.72;;;;;;;15.35;58.45;102167.06;3566318;40;20419;-64
2022/06/14 06:27:12;;;;;;;11.23;3.00;;;;;;;15.55;58.45;102169.44;3566703;40;20355;-66
2022/06/14 06:29:59;;;;;;;9.88;3.28;;;;;;;15.72;56.76;102163.00;3567584;40;20061;-65
2022/06/14 06:32:31;;;;;;;7.93;2.90;;;;;;;15.93;56.43;102168.94;3566737;40;20092;-64
2022/06/14 06:35:01;;;;;;;6.50;2.67;;;;;;;16.08;55.96;102165.25;3564707;40;20068;-65
2022/06/14 06:37:43;;;;;;;10.15;3.03;;;;;;;16.25;54.60;102166.88;3566350;40;20049;-64
2022/06/14 06:40:24;;;;;;;11.70;3.53;;;;;;;16.43;54.44;102171.13;3564519;40;20049;-65
2022/06/14 06:43:09;;;;;;;10.65;2.75;;;;;;;16.57;51.41;102177.50;3565145;40;20065;-65
2022/06/14 06:45:43;;;;;;;11.95;2.97;;;;;;;16.76;51.62;102175.34;3569598;40;20055;-67
2022/06/14 06:48:32;;;;;;;11.90;2.92;;;;;;;16.92;52.37;102170.63;3565190;40;20498;-65
2022/06/14 06:51:08;;;;;;;9.85;2.85;;;;;;;17.04;50.50;102168.94;3567565;40;20052;-64
2022/06/14 06:53:49;;;;;;;8.50;3.20;;;;;;;17.19;49.15;102177.88;3556596;40;20056;-64
2022/06/14 06:56:27;;;;;;;10.80;3.47;;;;;;;17.30;49.43;102169.84;3569637;40;20057;-66
2022/06/14 06:59:03;;;;;;;14.57;3.40;;;;;;;17.37;48.98;102176.59;3568059;40;20462;-65
2022/06/14 07:01:37;;;;;;;14.20;3.80;;;;;;;17.47;48.45;102170.53;3566289;40;20053;-64
2022/06/14 07:07:52;;;;;;;9.05;3.22;;;;;;;17.73;46.77;102171.41;3569095;40;20367;-64
2022/06/14 07:10:35;;;;;;;11.35;3.92;;;;;;;17.91;45.95;102169.28;3566468;40;20057;-65
2022/06/14 07:13:46;;;;;;;6.47;3.65;;;;;;;18.06;48.20;102168.19;3565883;40;20044;-65
2022/06/14 07:16:39;;;;;;;7.70;3.08;;;;;;;18.23;44.96;102170.53;3566253;40;20062;-65
2022/06/14 07:19:42;;;;;;;10.63;2.83;;;;;;;18.44;45.69;102169.97;3569737;40;20057;-64
2022/06/14 07:22:35;;;;;;;8.77;2.75;;;;;;;18.62;43.92;102174.06;3565515;40;20083;-64
2022/06/14 07:25:18;;;;;;;6.32;2.42;;;;;;;18.69;41.96;102167.16;3565998;40;20060;-65
2022/06/14 07:28:13;;;;;;;8.27;2.35;;;;;;;18.81;41.76;102170.88;3555513;40;20055;-64
2022/06/14 07:30:54;;;;;;;4.65;2.17;;;;;;;18.98;42.04;102169.56;3565199;40;20068;-65
2022/06/14 07:33:27;;;;;;;3.63;1.90;;;;;;;18.97;40.50;102165.97;3566929;40;20061;-64
2022/06/14 07:36:02;;;;;;;3.65;2.08;;;;;;;18.97;40.29;102165.97;3565211;40;20053;-65
2022/06/14 07:39:01;;;;;;;7.15;2.38;;;;;;;19.15;40.14;102163.69;3568643;40;20295;-65
2022/06/14 07:42:04;;;;;;;5.32;2.10;;;;;;;19.42;41.85;102165.28;3567022;40;20127;-64
2022/06/14 07:44:55;;;;;;;6.37;2.53;;;;;;;19.48;39.26;102170.25;3564839;40;20052;-64
2022/06/14 07:47:36;;;;;;;5.40;2.47;;;;;;;19.49;38.87;102163.81;3566275;40;20045;-65
2022/06/14 07:50:25;;;;;;;4.72;1.90;;;;;;;19.57;39.38;102168.66;3565946;40;20380;-64
2022/06/14 07:53:06;;;;;;;6.28;2.15;;;;;;;19.75;39.33;102166.38;3566532;40;20126;-64
2022/06/14 07:55:58;;;;;;;5.45;2.08;;;;;;;19.84;39.51;102165.63;3563524;40;20072;-65
2022/06/14 07:58:37;;;;;;;6.43;2.40;;;;;;;20.01;41.13;102167.88;3571481;40;20053;-65
2022/06/14 08:01:19;;;;;;;4.20;2.00;;;;;;;19.94;40.88;102166.63;3564510;40;20073;-65
2022/06/14 08:04:21;;;;;;;4.88;2.38;;;;;;;20.10;38.14;102164.41;3564164;40;20061;-65
2022/06/14 08:07:16;;;;;;;5.35;2.85;;;;;;;20.23;39.45;102157.94;3570236;40;20048;-65
2022/06/14 08:10:13;;;;;;;6.57;2.92;;;;;;;20.36;39.21;102155.94;3567614;40;20069;-64
2022/06/14 08:12:50;;;;;;;4.15;2.40;;;;;;;20.46;40.03;102165.13;3572816;40;20050;-65
2022/06/14 08:15:51;;;;;;;6.10;2.30;;;;;;;20.53;38.88;102163.66;3569282;40;20048;-65
2022/06/14 08:18:36;;;;;;;5.20;2.42;;;;;;;20.48;38.86;102157.66;3571741;40;20045;-65
2022/06/14 08:21:12;;;;;;;6.60;2.50;;;;;;;20.75;38.61;102157.28;3571218;40;20068;-65
2022/06/14 08:23:52;;;;;;;5.45;2.40;;;;;;;20.96;38.58;102149.13;3568361;40;20057;-65
2022/06/14 08:26:36;;;;;;;4.78;2.40;;;;;;;21.10;39.55;102143.34;3565143;40;20065;-66
2022/06/14 08:29:43;;;;;;;5.25;2.35;;;;;;;21.33;38.51;102152.31;3565402;40;20057;-66
2022/06/14 08:32:35;;;;;;;6.22;2.50;;;;;;;21.35;37.54;102149.47;3550757;40;20389;-66
2022/06/14 08:35:13;;;;;;;4.70;1.80;;;;;;;21.42;38.46;102144.34;3568270;40;20045;-65
2022/06/14 08:38:13;;;;;;;5.00;2.20;;;;;;;21.49;39.23;102140.94;3566353;40;20049;-65
2022/06/14 08:41:02;;;;;;;7.43;2.42;;;;;;;21.55;38.23;102137.66;3566523;40;20045;-65
2022/06/14 08:43:59;;;;;;;5.30;2.50;;;;;;;21.44;39.41;102132.28;3565867;40;20180;-65
2022/06/14 08:46:51;;;;;;;6.90;2.35;;;;;;;21.86;38.28;102142.31;3565436;40;20065;-66
2022/06/14 08:49:38;;;;;;;5.13;2.08;;;;;;;22.21;36.15;102128.22;3571918;40;20358;-65
2022/06/14 08:53:00;;;;;;;5.78;2.20;;;;;;;22.32;37.45;102127.22;3568697;40;20049;-65
2022/06/14 08:55:58;;;;;;;4.82;2.25;;;;;;;22.52;35.93;102133.59;3564932;40;20092;-65
2022/06/14 08:59:01;;;;;;;5.75;2.40;;;;;;;22.84;35.34;102137.00;3568600;40;20093;-66
2022/06/14 09:02:16;;;;;;;11.98;3.72;;;;;;;22.96;35.58;102132.25;3566597;40;20059;-64
2022/06/14 09:05:19;;;;;;;5.88;2.50;;;;;;;22.99;35.08;102131.97;3566646;40;20055;-63
2022/06/14 09:08:34;;;;;;;6.18;2.65;;;;;;;23.13;35.50;102138.91;3567150;40;20126;-64
2022/06/14 09:11:38;;;;;;;4.20;2.10;;;;;;;22.98;34.30;102138.47;3566271;40;20052;-64
2022/06/14 09:14:55;;;;;;;4.93;2.08;;;;;;;23.03;34.79;102133.44;3564914;40;20053;-64
2022/06/14 09:17:54;;;;;;;7.05;2.58;;;;;;;23.17;36.29;102132.97;3555991;40;20061;-64
2022/06/14 09:20:38;;;;;;;8.25;2.75;;;;;;;23.16;35.46;102133.13;3565599;40;20049;-64
2022/06/14 09:23:41;;;;;;;4.28;2.25;;;;;;;23.10;34.55;102128.22;3567612;40;20056;-64
2022/06/14 09:26:28;;;;;;;3.72;2.03;;;;;;;23.28;35.71;102137.47;3566127;40;20065;-64
2022/06/14 09:29:27;;;;;;;4.10;2.00;;;;;;;23.22;34.58;102137.19;3565133;40;20386;-64
2022/06/14 09:32:23;;;;;;;5.35;2.45;;;;;;;23.30;34.07;102129.94;3566749;40;21227;-64
2022/06/14 09:35:31;;;;;;;5.32;2.28;;;;;;;23.44;34.01;102134.13;3571289;40;20052;-64
2022/06/14 09:38:13;;;;;;;4.40;2.40;;;;;;;23.50;33.41;102124.41;3567362;40;20138;-64
2022/06/14 09:41:15;;;;;;;6.03;2.50;;;;;;;23.62;34.99;102123.22;3567314;40;20072;-64
2022/06/14 09:44:20;;;;;;;7.82;2.58;;;;;;;23.55;34.81;102116.59;3567112;40;20046;-64
2022/06/14 09:47:24;;;;;;;3.97;2.05;;;;;;;23.53;33.81;102119.50;3567133;40;20061;-64
2022/06/14 09:50:04;;;;;;;7.68;2.53;;;;;;;23.39;34.81;102107.09;3567205;40;20298;-64
2022/06/14 09:53:09;;;;;;;4.80;2.63;;;;;;;23.51;34.36;102104.19;3566018;40;20056;-64
2022/06/14 09:56:06;;;;;;;14.95;4.10;;;;;;;23.34;35.39;102097.56;3567295;40;20061;-63
2022/06/14 09:59:15;;;;;;;7.50;2.83;;;;;;;23.43;35.31;102098.56;3570483;40;20151;-63
2022/06/14 10:01:53;;;;;;;8.23;2.67;;;;;;;23.74;34.37;102100.09;3565565;40;20041;-64
2022/06/14 10:04:54;;;;;;;7.18;2.60;;;;;;;23.86;34.38;102082.44;3565249;40;20057;-64
2022/06/14 10:08:20;;;;;;;5.30;2.60;;;;;;;24.02;35.84;102089.16;3569747;40;20064;-63
2022/06/14 10:11:26;;;;;;;6.63;2.22;;;;;;;24.17;35.37;102093.13;3566744;40;20045;-64
2022/06/14 10:14:19;;;;;;;7.45;2.70;;;;;;;24.29;32.53;102094.66;3566987;40;20145;-64
2022/06/14 10:17:10;;;;;;;6.00;3.50;;;;;;;24.31;32.37;102098.09;3565684;40;20053;-63
2022/06/14 10:20:27;;;;;;;3.97;2.20;;;;;;;24.16;31.18;102091.38;3565361;40;20065;-63
2022/06/14 10:23:23;;;;;;;4.85;2.10;;;;;;;24.17;33.14;102090.38;3565899;40;20061;-64
2022/06/14 10:29:46;;;;;;;8.57;2.60;;;;;;;24.39;34.98;102077.19;3568395;40;20077;-64
2022/06/14 10:32:24;;;;;;;8.10;3.03;;;;;;;24.29;33.81;102072.66;3566861;40;20049;-63
2022/06/14 10:35:20;;;;;;;4.47;2.25;;;;;;;24.28;32.92;102064.56;3567308;40;20052;-64
2022/06/14 10:38:18;;;;;;;7.50;2.53;;;;;;;23.86;33.50;102057.72;3564807;40;20123;-64
2022/06/14 10:41:00;;;;;;;4.88;2.10;;;;;;;23.92;35.10;102058.13;3565309;40;20057;-64
2022/06/14 10:44:10;;;;;;;5.32;2.38;;;;;;;24.15;35.49;102053.94;3566176;40;20061;-64
2022/06/14 10:47:53;;;;;;;5.72;2.45;;;;;;;24.35;34.23;102056.56;3567764;40;20099;-64
2022/06/14 10:50:53;;;;;;;6.50;2.30;;;;;;;24.45;35.67;102046.38;3540408;40;20049;-64
2022/06/14 10:53:55;;;;;;;5.22;2.40;;;;;;;24.77;34.45;102043.97;3564904;40;20057;-64
2022/06/14 10:56:50;;;;;;;6.43;2.33;;;;;;;24.89;35.08;102051.94;3564580;40;20056;-64
2022/06/14 10:59:58;;;;;;;5.97;2.40;;;;;;;25.22;32.99;102042.97;3565160;40;20126;-64
2022/06/14 11:03:07;;;;;;;5.75;2.30;;;;;;;25.37;32.63;102036.84;3565232;40;20394;-63
2022/06/14 11:06:19;;;;;;;4.50;2.38;;;;;;;25.48;33.24;102036.59;3568334;40;20060;-63
2022/06/14 11:09:28;;;;;;;4.68;2.10;;;;;;;25.69;31.80;102026.03;3566171;40;20049;-64
2022/06/14 11:12:35;;;;;;;5.07;2.10;;;;;;;25.74;32.91;102025.53;3550330;40;20056;-64
2022/06/14 11:15:18;;;;;;;5.10;2.20;;;;;;;25.74;32.08;102024.69;3553478;40;20045;-64
2022/06/14 11:18:10;;;;;;;9.07;2.65;;;;;;;25.92;30.71;102022.72;3565399;40;20056;-64
2022/06/14 11:20:54;;;;;;;8.27;2.80;;;;;;;25.99;30.59;102028.44;3565805;40;20089;-64
2022/06/14 11:23:42;;;;;;;28.73;5.47;;;;;;;26.16;32.68;102014.53;3570036;40;20052;-64
2022/06/14 11:26:40;;;;;;;24.80;4.22;;;;;;;26.21;30.67;102021.44;3565668;40;20059;-64
2022/06/14 11:29:43;;;;;;;9.57;3.03;;;;;;;26.03;31.18;102014.13;3567699;40;20049;-64
2022/06/14 11:32:29;;;;;;;5.93;2.63;;;;;;;26.24;30.35;102010.06;3565406;40;20118;-64
2022/06/14 11:35:36;;;;;;;6.68;2.40;;;;;;;26.23;30.66;102008.31;3565734;40;20099;-64
2022/06/14 11:38:35;;;;;;;5.03;2.40;;;;;;;26.25;31.70;102009.88;3546666;40;20143;-63
2022/06/14 11:41:07;;;;;;;5.43;2.25;;;;;;;26.20;30.63;101983.84;3565916;40;20049;-65
2022/06/14 11:43:50;;;;;;;8.40;2.42;;;;;;;26.48;30.53;101989.94;3566610;40;20085;-63
2022/06/14 11:46:37;;;;;;;;;;;;;;;26.55;30.62;101989.13;3564906;40;20068;-64
2022/06/14 11:49:27;;;;;;;7.07;2.50;;;;;;;26.71;30.01;101990.16;3564672;40;19940;-64
2022/06/14 11:52:55;;;;;;;7.07;2.50;;;;;;;26.71;30.20;101987.41;3567253;40;20101;-64
2022/06/14 11:55:33;;;;;;;8.52;2.85;;;;;;;26.87;29.21;101984.63;3552302;40;20087;-64
2022/06/14 11:58:25;;;;;;;6.20;2.20;;;;;;;27.01;30.51;101983.06;3567587;40;20052;-64
2022/06/14 12:01:26;;;;;;;28.08;8.70;;;;;;;27.37;28.62;101986.28;3565948;40;20078;-64
2022/06/14 12:04:24;;;;;;;5.18;2.00;;;;;;;27.39;29.23;101980.59;3564108;40;20067;-64
2022/06/14 12:06:58;;;;;;;4.45;2.10;;;;;;;27.30;28.15;101979.75;3568414;40;20045;-63
2022/06/14 12:09:39;;;;;;;4.53;2.15;;;;;;;27.36;30.06;101979.03;3565274;40;20381;-64
2022/06/14 12:12:48;;;;;;;12.93;3.20;;;;;;;27.52;28.58;101970.69;3566346;40;20703;-64
2022/06/14 12:15:36;;;;;;;7.07;2.90;;;;;;;27.33;28.45;101982.16;3567743;40;20054;-64
2022/06/14 12:18:08;;;;;;;6.93;2.40;;;;;;;27.30;28.52;101976.97;3566027;40;20060;-63
2022/06/14 12:21:10;;;;;;;5.55;2.67;;;;;;;27.23;28.82;101974.06;3568534;40;20249;-64
2022/06/14 12:23:58;;;;;;;4.72;2.30;;;;;;;27.28;28.41;101985.44;3557344;40;20126;-64
2022/06/14 12:26:42;;;;;;;5.40;2.80;;;;;;;27.44;28.41;101976.25;3566837;40;20436;-64
2022/06/14 12:29:20;;;;;;;5.75;2.55;;;;;;;27.38;27.52;101954.00;3572062;40;20419;-64
2022/06/14 12:32:13;;;;;;;5.53;2.38;;;;;;;27.60;29.59;101963.44;3565954;40;20056;-63
2022/06/14 12:34:47;;;;;;;5.93;2.50;;;;;;;27.87;26.86;101965.72;3568167;40;20138;-64
2022/06/14 12:37:43;;;;;;;5.32;2.55;;;;;;;28.02;28.88;101959.44;3569684;40;20125;-64
2022/06/14 12:40:20;;;;;;;5.47;2.50;;;;;;;28.10;28.30;101953.84;3566515;40;20056;-64
2022/06/14 12:43:22;;;;;;;5.78;2.55;;;;;;;28.31;27.40;101950.41;3566297;40;20412;-64
2022/06/14 12:45:58;;;;;;;4.50;2.22;;;;;;;28.55;26.05;101963.22;3565748;40;20318;-64
2022/06/14 12:48:57;;;;;;;3.92;2.28;;;;;;;28.44;25.50;101957.06;3571043;40;20044;-64
2022/06/14 12:51:41;;;;;;;4.70;2.60;;;;;;;28.17;25.80;101949.31;3568131;40;20121;-64
2022/06/14 12:54:32;;;;;;;4.03;2.17;;;;;;;28.11;28.33;101955.56;3568679;40;20077;-64
2022/06/14 12:57:28;;;;;;;8.18;3.13;;;;;;;28.32;25.30;101952.13;3566183;40;20080;-64
2022/06/14 13:00:21;;;;;;;5.75;2.70;;;;;;;28.09;27.00;101950.22;3566165;40;20075;-64
2022/06/14 13:03:30;;;;;;;6.53;2.97;;;;;;;28.09;25.85;101946.59;3568337;40;20072;-64
2022/06/14 13:06:43;;;;;;;5.38;2.92;;;;;;;27.62;27.18;101945.59;3567592;40;20410;-64
2022/06/14 13:09:51;;;;;;;5.97;2.97;;;;;;;27.37;28.38;101931.06;3564373;40;20320;-64